To NAV CANADA Home Page Login to a new session Search on AWWS site Disclaimer Vers la page française équivalente Tips FAQ What's new on the site To the Forecasts and Observations / NOTAM section To "File a Flight Plan" website Publications and other links Update of the User's profile FIC Telephone Numbers My Weather Data Folder Route Weather Data Regional Weather Data Local Weather Data To the Forecasts and Observations / NOTAM section
Request Generated 03/19/2019 at 23:27:51 UTC . Weather information available at that time is displayed.

METAR/TAF

SAINT JOHN/NB    

METAR CYSJ 192300Z 34007KT 15SM FEW060 M02/M13 A3026 RMK SC1 SLP255=
METAR CYSJ 192200Z 33011KT 15SM FEW072 M01/M12 A3024 RMK AC1 SLP249=
METAR CYSJ 192100Z 30007G16KT 270V340 15SM FEW065 00/M16 A3022 RMK SC2 SLP242=

TAF CYSJ 191740Z 1918/2006 20010KT P6SM SCT050 TEMPO 1918/2001 BKN050
BECMG 1920/1922 30007KT
FM200100 VRB03KT P6SM FEW050
RMK NXT FCST BY 200000Z=
Your time UTC time
Weather data provided by Environment Canada and NAV CANADA